createdAt,value
2023-12-05T00:00:40.658Z,100.00
2023-12-05T00:03:07.843Z,100.00
2023-12-05T00:05:35.376Z,100.00
2023-12-05T00:08:05.599Z,100.00
2023-12-05T00:10:33.537Z,100.00
2023-12-05T00:13:04.834Z,100.00
2023-12-05T00:15:31.968Z,100.00
2023-12-05T00:17:59.552Z,100.00
2023-12-05T00:20:26.675Z,100.00
2023-12-05T00:22:53.875Z,100.00
2023-12-05T00:25:20.919Z,100.00
2023-12-05T00:27:48.000Z,100.00
2023-12-05T00:30:15.539Z,100.00
2023-12-05T00:32:43.150Z,100.00
2023-12-05T00:35:10.303Z,100.00
2023-12-05T00:37:37.785Z,100.00
2023-12-05T00:40:05.880Z,100.00
2023-12-05T00:42:33.381Z,100.00
2023-12-05T00:45:00.888Z,100.00
2023-12-05T00:47:27.937Z,100.00
2023-12-05T00:49:55.065Z,100.00
2023-12-05T00:52:22.506Z,100.00
2023-12-05T00:54:49.620Z,100.00
2023-12-05T00:57:17.177Z,100.00
2023-12-05T00:59:44.646Z,100.00
2023-12-05T01:02:11.738Z,100.00
2023-12-05T01:04:39.426Z,100.00
2023-12-05T01:07:07.135Z,100.00
2023-12-05T01:09:34.688Z,100.00
2023-12-05T01:12:02.241Z,100.00
2023-12-05T01:14:29.641Z,100.00
2023-12-05T01:16:57.319Z,100.00
2023-12-05T01:19:26.247Z,100.00
2023-12-05T01:21:53.401Z,100.00
2023-12-05T01:24:20.955Z,100.00
2023-12-05T01:26:48.042Z,100.00
2023-12-05T01:29:15.072Z,100.00
2023-12-05T01:31:42.115Z,100.00
2023-12-05T01:34:11.624Z,100.00
2023-12-05T01:36:39.192Z,100.00
2023-12-05T01:39:06.698Z,100.00
2023-12-05T01:41:34.848Z,100.00
2023-12-05T01:44:02.326Z,100.00
2023-12-05T01:46:29.780Z,100.00
2023-12-05T01:48:57.644Z,100.00
2023-12-05T01:51:25.664Z,100.00
2023-12-05T01:53:53.661Z,100.00
2023-12-05T01:56:21.272Z,100.00
2023-12-05T01:58:48.403Z,100.00
2023-12-05T02:01:19.476Z,100.00
2023-12-05T02:03:48.135Z,100.00
2023-12-05T02:06:19.653Z,100.00
2023-12-05T02:08:47.582Z,100.00
2023-12-05T02:11:15.117Z,100.00
2023-12-05T02:13:44.534Z,100.00
2023-12-05T02:16:18.181Z,100.00
2023-12-05T02:19:03.278Z,100.00
2023-12-05T02:21:34.955Z,100.00
2023-12-05T02:24:35.484Z,100.00
2023-12-05T02:27:18.276Z,100.00
2023-12-05T02:29:52.695Z,100.00
2023-12-05T02:32:19.876Z,100.00
2023-12-05T02:34:47.545Z,100.00
2023-12-05T02:37:44.538Z,100.00
2023-12-05T02:40:40.120Z,100.00
2023-12-05T02:43:13.414Z,100.00
2023-12-05T02:45:42.081Z,100.00
2023-12-05T02:48:12.918Z,100.00
2023-12-05T02:50:41.247Z,100.00
2023-12-05T02:53:08.663Z,100.00
2023-12-05T02:55:36.215Z,100.00
2023-12-05T02:58:03.638Z,100.00
2023-12-05T03:00:31.250Z,100.00
2023-12-05T03:02:58.784Z,100.00
2023-12-05T03:05:25.893Z,100.00
2023-12-05T03:07:53.361Z,100.00
2023-12-05T03:10:20.788Z,100.00
2023-12-05T03:12:48.602Z,100.00
2023-12-05T03:15:16.306Z,100.00
2023-12-05T03:17:43.577Z,100.00
2023-12-05T03:20:11.965Z,100.00
2023-12-05T03:22:39.676Z,100.00
2023-12-05T03:25:07.743Z,100.00
2023-12-05T03:27:34.875Z,100.00
2023-12-05T03:30:02.335Z,100.00
2023-12-05T03:32:30.116Z,100.00
2023-12-05T03:34:57.583Z,100.00
2023-12-05T03:37:25.017Z,100.00
2023-12-05T03:39:52.177Z,100.00
2023-12-05T03:42:19.672Z,100.00
2023-12-05T03:44:46.737Z,100.00
2023-12-05T03:47:14.294Z,100.00
2023-12-05T03:49:41.479Z,100.00
2023-12-05T03:52:14.678Z,100.00
2023-12-05T03:54:41.820Z,100.00
2023-12-05T03:57:09.258Z,100.00
2023-12-05T03:59:36.717Z,100.00
2023-12-05T04:02:03.963Z,100.00
2023-12-05T04:04:31.827Z,100.00
2023-12-05T04:06:58.960Z,100.00
2023-12-05T04:09:26.525Z,100.00
2023-12-05T04:11:53.631Z,100.00
2023-12-05T04:14:21.061Z,100.00
2023-12-05T04:16:48.575Z,100.00
2023-12-05T04:19:15.914Z,100.00
2023-12-05T04:21:43.507Z,100.00
2023-12-05T04:24:10.691Z,100.00
2023-12-05T04:26:38.326Z,100.00
2023-12-05T04:29:05.754Z,100.00
2023-12-05T04:31:33.241Z,100.00
2023-12-05T04:34:00.413Z,100.00
2023-12-05T04:36:27.685Z,100.00
2023-12-05T04:38:55.069Z,100.00
2023-12-05T04:41:22.563Z,100.00
2023-12-05T04:43:50.107Z,100.00
2023-12-05T04:46:17.605Z,100.00
2023-12-05T04:48:44.885Z,100.00
2023-12-05T04:51:12.508Z,100.00
2023-12-05T04:53:41.774Z,100.00
2023-12-05T04:56:09.370Z,100.00
2023-12-05T04:58:37.052Z,100.00
2023-12-05T05:01:04.526Z,100.00
2023-12-05T05:03:31.736Z,100.00
2023-12-05T05:05:59.402Z,100.00
2023-12-05T05:08:26.896Z,100.00
2023-12-05T05:10:54.452Z,100.00
2023-12-05T05:13:22.118Z,100.00
2023-12-05T05:15:49.658Z,100.00
2023-12-05T05:18:16.943Z,100.00
2023-12-05T05:20:44.092Z,100.00
2023-12-05T05:23:12.394Z,100.00
2023-12-05T05:25:39.677Z,100.00
2023-12-05T05:28:10.363Z,100.00
2023-12-05T05:30:37.954Z,100.00
2023-12-05T05:33:05.119Z,100.00
2023-12-05T05:35:32.211Z,100.00
2023-12-05T05:37:59.385Z,100.00
2023-12-05T05:40:28.067Z,100.00
2023-12-05T05:42:55.670Z,100.00
2023-12-05T05:45:23.476Z,100.00
2023-12-05T05:47:51.223Z,100.00
2023-12-05T05:50:20.856Z,100.00
2023-12-05T05:52:48.515Z,100.00
2023-12-05T05:55:15.666Z,100.00
2023-12-05T05:57:42.920Z,100.00
2023-12-05T06:00:13.130Z,100.00
2023-12-05T06:02:41.126Z,100.00
2023-12-05T06:05:08.645Z,100.00
2023-12-05T06:07:35.807Z,100.00
2023-12-05T06:10:03.880Z,100.00
2023-12-05T06:12:33.380Z,100.00
2023-12-05T06:15:00.904Z,100.00
2023-12-05T06:17:28.358Z,100.00
2023-12-05T06:19:55.515Z,100.00
2023-12-05T06:22:23.097Z,100.00
2023-12-05T06:24:50.418Z,100.00
2023-12-05T06:27:17.829Z,100.00
2023-12-05T06:29:45.962Z,100.00
2023-12-05T06:32:13.049Z,100.00
2023-12-05T06:34:40.490Z,100.00
2023-12-05T06:37:07.829Z,100.00
2023-12-05T06:39:35.986Z,100.00
2023-12-05T06:42:05.669Z,100.00
2023-12-05T06:44:33.113Z,100.00
2023-12-05T06:47:00.529Z,100.00
2023-12-05T06:49:28.130Z,100.00
2023-12-05T06:52:22.623Z,100.00
2023-12-05T06:54:49.835Z,100.00
2023-12-05T06:57:16.929Z,100.00
2023-12-05T06:59:43.995Z,100.00
2023-12-05T07:02:11.004Z,100.00
2023-12-05T07:04:38.259Z,100.00
2023-12-05T07:07:05.558Z,100.00
2023-12-05T07:09:34.361Z,100.00
2023-12-05T07:12:01.861Z,100.00
2023-12-05T07:14:28.879Z,100.00
2023-12-05T07:16:56.233Z,100.00
2023-12-05T07:19:23.805Z,100.00
2023-12-05T07:21:51.353Z,100.00
2023-12-05T07:24:18.388Z,100.00
2023-12-05T07:26:47.954Z,100.00
2023-12-05T07:29:15.213Z,100.00
2023-12-05T07:31:42.234Z,100.00
2023-12-05T07:34:09.405Z,100.00
2023-12-05T07:36:41.821Z,100.00
2023-12-05T07:39:11.124Z,100.00
2023-12-05T07:41:40.148Z,100.00
2023-12-05T07:44:10.230Z,100.00
2023-12-05T07:46:37.761Z,100.00
2023-12-05T07:49:04.830Z,100.00
2023-12-05T07:51:31.984Z,100.00
2023-12-05T07:53:59.370Z,100.00
2023-12-05T07:56:26.431Z,100.00
2023-12-05T07:58:53.397Z,100.00
2023-12-05T08:01:20.450Z,100.00
2023-12-05T08:03:47.559Z,100.00
2023-12-05T08:06:15.170Z,100.00
2023-12-05T08:08:42.182Z,100.00
2023-12-05T08:11:11.264Z,100.00
2023-12-05T08:13:38.651Z,100.00
2023-12-05T08:16:06.436Z,100.00
2023-12-05T08:18:33.517Z,100.00
2023-12-05T08:21:00.569Z,100.00
2023-12-05T08:23:27.550Z,100.00
2023-12-05T08:25:54.550Z,100.00
2023-12-05T08:28:21.487Z,100.00
2023-12-05T08:30:48.552Z,100.00
2023-12-05T08:33:16.351Z,100.00
2023-12-05T08:35:43.720Z,100.00
2023-12-05T08:38:10.718Z,100.00
2023-12-05T08:40:37.881Z,100.00
2023-12-05T08:43:05.202Z,100.00
2023-12-05T08:45:33.287Z,100.00
2023-12-05T08:48:00.460Z,100.00
2023-12-05T08:50:28.131Z,100.00
2023-12-05T08:52:55.155Z,100.00
2023-12-05T08:55:23.109Z,100.00
2023-12-05T08:57:50.156Z,100.00
2023-12-05T09:00:17.540Z,100.00
2023-12-05T09:02:44.652Z,100.00
2023-12-05T09:05:11.729Z,100.00
2023-12-05T09:07:39.714Z,100.00
2023-12-05T09:10:07.876Z,100.00
2023-12-05T09:12:34.869Z,100.00
2023-12-05T09:15:01.882Z,100.00
2023-12-05T09:17:29.511Z,100.00
2023-12-05T09:19:57.605Z,100.00
2023-12-05T09:22:24.722Z,100.00
2023-12-05T09:24:51.713Z,100.00
2023-12-05T09:27:18.831Z,100.00
2023-12-05T09:29:50.335Z,100.00
2023-12-05T09:32:19.491Z,100.00
2023-12-05T09:34:46.857Z,100.00
2023-12-05T09:37:14.469Z,100.00
2023-12-05T09:39:42.378Z,100.00
2023-12-05T09:42:14.886Z,100.00
2023-12-05T09:44:47.460Z,100.00
2023-12-05T09:47:21.313Z,100.00
2023-12-05T09:49:48.768Z,100.00
2023-12-05T09:52:16.360Z,100.00
2023-12-05T09:54:44.874Z,100.00
2023-12-05T09:57:15.688Z,100.00
2023-12-05T09:59:43.836Z,100.00
2023-12-05T10:02:13.739Z,100.00
2023-12-05T10:04:46.390Z,100.00
2023-12-05T10:07:14.702Z,100.00
2023-12-05T10:09:43.491Z,100.00
2023-12-05T10:12:12.882Z,100.00
2023-12-05T10:14:42.214Z,100.00
2023-12-05T10:17:09.879Z,100.00
2023-12-05T10:19:37.821Z,100.00
2023-12-05T10:22:05.487Z,100.00
2023-12-05T10:24:46.902Z,100.00
2023-12-05T10:27:14.246Z,100.00
2023-12-05T10:29:43.542Z,100.00
2023-12-05T10:32:14.173Z,100.00
2023-12-05T10:34:49.783Z,100.00
2023-12-05T10:37:30.343Z,100.00
2023-12-05T10:39:59.661Z,100.00
2023-12-05T10:42:28.937Z,100.00
2023-12-05T10:44:59.054Z,100.00
2023-12-05T10:47:28.181Z,100.00
2023-12-05T10:49:55.510Z,100.00
2023-12-05T10:52:22.837Z,100.00
2023-12-05T10:54:57.666Z,100.00
2023-12-05T10:57:32.377Z,100.00
2023-12-05T11:00:00.502Z,100.00
2023-12-05T11:02:28.107Z,100.00
2023-12-05T11:04:55.582Z,100.00
2023-12-05T11:07:22.684Z,100.00
2023-12-05T11:09:50.347Z,100.00
2023-12-05T11:12:19.276Z,100.00
2023-12-05T11:14:51.480Z,100.00
2023-12-05T11:17:26.735Z,100.00
2023-12-05T11:20:24.002Z,100.00
2023-12-05T11:23:42.991Z,100.00
2023-12-05T11:26:45.816Z,100.00
2023-12-05T11:30:01.011Z,100.00
2023-12-05T11:32:56.164Z,100.00
2023-12-05T11:35:55.948Z,100.00
2023-12-05T11:38:23.884Z,100.00
2023-12-05T11:41:21.827Z,100.00
2023-12-05T11:44:14.133Z,100.00
2023-12-05T11:46:50.687Z,100.00
2023-12-05T11:49:29.557Z,100.00
2023-12-05T11:52:12.078Z,100.00
2023-12-05T11:54:45.488Z,100.00
2023-12-05T11:57:24.143Z,100.00
2023-12-05T11:59:57.202Z,100.00
2023-12-05T12:02:33.436Z,100.00
2023-12-05T12:05:07.743Z,100.00
2023-12-05T12:07:54.275Z,100.00
2023-12-05T12:10:21.834Z,100.00
2023-12-05T12:12:49.310Z,100.00
2023-12-05T12:15:17.772Z,100.00
2023-12-05T12:17:45.564Z,100.00
2023-12-05T12:20:19.696Z,100.00
2023-12-05T12:22:52.243Z,100.00
2023-12-05T12:25:20.283Z,100.00
2023-12-05T12:27:48.333Z,100.00
2023-12-05T12:30:16.974Z,95.35
2023-12-05T12:32:58.774Z,100.00
2023-12-05T12:35:26.773Z,97.33
2023-12-05T12:37:55.590Z,100.00
2023-12-05T12:40:23.865Z,100.00
2023-12-05T12:42:53.357Z,97.77
2023-12-05T12:45:20.683Z,93.75
2023-12-05T12:47:48.945Z,92.07
2023-12-05T12:50:16.166Z,93.80
2023-12-05T12:52:45.595Z,94.85
2023-12-05T12:55:13.553Z,97.96
2023-12-05T12:57:41.904Z,94.19
2023-12-05T13:00:30.813Z,96.18
2023-12-05T13:03:00.354Z,95.95
2023-12-05T13:05:40.668Z,98.87
2023-12-05T13:08:09.014Z,98.73
2023-12-05T13:10:38.373Z,99.55
2023-12-05T13:13:06.029Z,100.00
2023-12-05T13:15:33.606Z,98.33
2023-12-05T13:18:07.238Z,97.88
2023-12-05T13:20:53.797Z,95.96
2023-12-05T13:23:24.771Z,100.00
2023-12-05T13:25:52.067Z,99.96
2023-12-05T13:28:19.911Z,100.00
2023-12-05T13:30:47.212Z,97.47
2023-12-05T13:33:16.629Z,97.03
2023-12-05T13:35:44.399Z,97.26
2023-12-05T13:38:12.239Z,94.37
2023-12-05T13:40:39.543Z,98.31
2023-12-05T13:43:08.029Z,98.72
2023-12-05T13:45:35.399Z,99.76
2023-12-05T13:48:03.152Z,100.00
2023-12-05T13:50:30.292Z,100.00
2023-12-05T13:52:57.891Z,100.00
2023-12-05T13:55:26.034Z,100.00
2023-12-05T13:57:54.018Z,100.00
2023-12-05T14:00:21.188Z,100.00
2023-12-05T14:02:48.394Z,100.00
2023-12-05T14:05:15.806Z,100.00
2023-12-05T14:07:43.009Z,100.00
2023-12-05T14:10:10.803Z,100.00
2023-12-05T14:12:38.077Z,100.00
2023-12-05T14:15:05.994Z,100.00
2023-12-05T14:17:33.482Z,100.00
2023-12-05T14:20:01.826Z,100.00
2023-12-05T14:22:29.143Z,100.00
2023-12-05T14:24:56.623Z,100.00
2023-12-05T14:27:25.912Z,100.00
2023-12-05T14:29:53.325Z,100.00
2023-12-05T14:32:20.891Z,100.00
2023-12-05T14:34:48.321Z,100.00
2023-12-05T14:37:16.180Z,100.00
2023-12-05T14:39:46.046Z,100.00
2023-12-05T14:42:13.372Z,100.00
2023-12-05T14:44:44.499Z,100.00
2023-12-05T14:47:11.879Z,100.00
2023-12-05T14:49:39.115Z,100.00
2023-12-05T14:52:06.830Z,100.00
2023-12-05T14:54:34.175Z,100.00
2023-12-05T14:57:01.903Z,100.00
2023-12-05T14:59:28.950Z,100.00
2023-12-05T15:01:56.128Z,100.00
2023-12-05T15:04:24.681Z,100.00
2023-12-05T15:06:51.975Z,100.00
2023-12-05T15:09:19.536Z,100.00
2023-12-05T15:11:47.304Z,100.00
2023-12-05T15:14:14.354Z,100.00
2023-12-05T15:16:42.077Z,100.00
2023-12-05T15:19:10.461Z,100.00
2023-12-05T15:21:37.695Z,100.00
2023-12-05T15:24:05.030Z,100.00
2023-12-05T15:26:32.058Z,100.00
2023-12-05T15:28:59.829Z,100.00
2023-12-05T15:31:26.966Z,100.00
2023-12-05T15:33:56.439Z,100.00
2023-12-05T15:36:26.776Z,100.00
2023-12-05T15:38:54.256Z,100.00
2023-12-05T15:41:22.129Z,100.00
2023-12-05T15:43:49.345Z,100.00
2023-12-05T15:46:23.886Z,99.91
2023-12-05T15:48:51.968Z,100.00
2023-12-05T15:51:19.329Z,100.00
2023-12-05T15:53:46.817Z,100.00
2023-12-05T15:56:14.770Z,100.00
2023-12-05T15:58:42.466Z,97.58
2023-12-05T16:01:09.745Z,100.00
2023-12-05T16:03:37.072Z,100.00
2023-12-05T16:06:04.910Z,100.00
2023-12-05T16:08:32.011Z,100.00
2023-12-05T16:10:59.806Z,100.00
2023-12-05T16:13:27.196Z,100.00
2023-12-05T16:15:54.380Z,100.00
2023-12-05T16:18:22.320Z,100.00
2023-12-05T16:20:49.914Z,100.00
2023-12-05T16:23:17.207Z,100.00
2023-12-05T16:25:44.462Z,100.00
2023-12-05T16:28:11.802Z,100.00
2023-12-05T16:30:39.003Z,100.00
2023-12-05T16:33:06.275Z,100.00
2023-12-05T16:35:33.442Z,100.00
2023-12-05T16:38:00.698Z,100.00
2023-12-05T16:40:27.852Z,100.00
2023-12-05T16:42:55.749Z,100.00
2023-12-05T16:45:26.124Z,100.00
2023-12-05T16:47:59.305Z,100.00
2023-12-05T16:50:29.324Z,100.00
2023-12-05T16:52:57.473Z,100.00
2023-12-05T16:55:24.769Z,100.00
2023-12-05T16:57:51.893Z,100.00
2023-12-05T17:00:20.001Z,100.00
2023-12-05T17:02:47.111Z,100.00
2023-12-05T17:05:15.434Z,100.00
2023-12-05T17:07:43.667Z,100.00
2023-12-05T17:10:11.883Z,100.00
2023-12-05T17:12:39.080Z,100.00
2023-12-05T17:15:07.456Z,100.00
2023-12-05T17:17:35.223Z,100.00
2023-12-05T17:20:02.461Z,100.00
2023-12-05T17:22:31.376Z,100.00
2023-12-05T17:24:59.436Z,100.00
2023-12-05T17:27:27.066Z,100.00
2023-12-05T17:29:54.219Z,100.00
2023-12-05T17:32:27.074Z,100.00
2023-12-05T17:34:56.154Z,100.00
2023-12-05T17:37:23.895Z,100.00
2023-12-05T17:39:51.037Z,100.00
2023-12-05T17:42:18.832Z,100.00
2023-12-05T17:44:45.964Z,100.00
2023-12-05T17:47:13.191Z,100.00
2023-12-05T17:49:40.452Z,100.00
2023-12-05T17:52:09.660Z,100.00
2023-12-05T17:54:36.824Z,100.00
2023-12-05T17:57:04.351Z,100.00
2023-12-05T17:59:32.050Z,100.00
2023-12-05T18:01:59.305Z,100.00
2023-12-05T18:04:26.493Z,100.00
2023-12-05T18:06:54.192Z,100.00
2023-12-05T18:09:41.309Z,100.00
2023-12-05T18:12:08.885Z,100.00
2023-12-05T18:14:36.100Z,100.00
2023-12-05T18:17:03.392Z,100.00
2023-12-05T18:19:30.595Z,100.00
2023-12-05T18:21:59.860Z,100.00
2023-12-05T18:24:27.946Z,100.00
2023-12-05T18:26:55.429Z,100.00
2023-12-05T18:29:22.603Z,100.00
2023-12-05T18:31:49.741Z,100.00
2023-12-05T18:34:16.998Z,100.00
2023-12-05T18:36:44.154Z,100.00
2023-12-05T18:39:13.388Z,100.00
2023-12-05T18:41:41.324Z,100.00
2023-12-05T18:44:09.111Z,100.00
2023-12-05T18:46:37.545Z,100.00
2023-12-05T18:49:08.044Z,100.00
2023-12-05T18:51:35.565Z,100.00
2023-12-05T18:54:03.281Z,100.00
2023-12-05T18:56:30.430Z,100.00
2023-12-05T18:58:57.488Z,100.00
2023-12-05T19:01:25.021Z,100.00
2023-12-05T19:03:52.505Z,100.00
2023-12-05T19:06:20.446Z,100.00
2023-12-05T19:08:48.968Z,100.00
2023-12-05T19:11:16.096Z,100.00
2023-12-05T19:13:43.402Z,100.00
2023-12-05T19:16:10.586Z,100.00
2023-12-05T19:18:38.863Z,100.00
2023-12-05T19:21:07.836Z,100.00
2023-12-05T19:23:35.201Z,100.00
2023-12-05T19:26:03.453Z,100.00
2023-12-05T19:28:34.196Z,100.00
2023-12-05T19:31:06.866Z,100.00
2023-12-05T19:33:34.013Z,100.00
2023-12-05T19:36:01.819Z,100.00
2023-12-05T19:38:28.868Z,100.00
2023-12-05T19:40:55.911Z,100.00
2023-12-05T19:43:22.934Z,100.00
2023-12-05T19:45:50.046Z,100.00
2023-12-05T19:48:18.974Z,100.00
2023-12-05T19:50:46.610Z,100.00
2023-12-05T19:53:13.759Z,100.00
2023-12-05T19:55:44.655Z,100.00
2023-12-05T19:58:11.944Z,100.00
2023-12-05T20:00:39.223Z,100.00
2023-12-05T20:03:08.412Z,100.00
2023-12-05T20:05:35.883Z,100.00
2023-12-05T20:08:03.753Z,100.00
2023-12-05T20:10:31.719Z,100.00
2023-12-05T20:12:58.865Z,100.00
2023-12-05T20:15:26.534Z,100.00
2023-12-05T20:17:53.644Z,100.00
2023-12-05T20:20:20.696Z,100.00
2023-12-05T20:22:48.222Z,100.00
2023-12-05T20:25:15.402Z,100.00
2023-12-05T20:27:43.702Z,100.00
2023-12-05T20:30:11.700Z,100.00
2023-12-05T20:32:38.995Z,100.00
2023-12-05T20:35:07.135Z,100.00
2023-12-05T20:37:34.951Z,100.00
2023-12-05T20:40:02.615Z,100.00
2023-12-05T20:42:30.791Z,100.00
2023-12-05T20:44:58.075Z,100.00
2023-12-05T20:47:25.677Z,100.00
2023-12-05T20:49:52.891Z,100.00
2023-12-05T20:52:20.485Z,100.00
2023-12-05T20:54:48.137Z,100.00
2023-12-05T20:57:15.421Z,100.00
2023-12-05T20:59:42.639Z,100.00
2023-12-05T21:02:09.742Z,100.00
2023-12-05T21:04:37.401Z,100.00
2023-12-05T21:07:04.754Z,100.00
2023-12-05T21:09:32.477Z,100.00
2023-12-05T21:11:59.702Z,100.00
2023-12-05T21:14:26.975Z,100.00
2023-12-05T21:16:55.080Z,100.00
2023-12-05T21:19:22.146Z,100.00
2023-12-05T21:21:49.295Z,100.00
2023-12-05T21:24:16.450Z,100.00
2023-12-05T21:26:44.705Z,100.00
2023-12-05T21:29:11.750Z,100.00
2023-12-05T21:31:38.779Z,100.00
2023-12-05T21:34:06.005Z,100.00
2023-12-05T21:36:33.330Z,100.00
2023-12-05T21:39:00.508Z,100.00
2023-12-05T21:41:28.156Z,100.00
2023-12-05T21:43:55.262Z,100.00
2023-12-05T21:46:32.474Z,100.00
2023-12-05T21:49:00.742Z,100.00
2023-12-05T21:51:29.773Z,100.00
2023-12-05T21:53:59.468Z,100.00
2023-12-05T21:56:27.996Z,100.00
2023-12-05T21:58:55.330Z,100.00
2023-12-05T22:01:22.439Z,100.00
2023-12-05T22:03:49.683Z,100.00
2023-12-05T22:06:16.854Z,100.00
2023-12-05T22:08:44.055Z,100.00
2023-12-05T22:11:11.238Z,100.00
2023-12-05T22:13:38.494Z,100.00
2023-12-05T22:16:06.144Z,100.00
2023-12-05T22:18:33.556Z,100.00
2023-12-05T22:21:02.619Z,100.00
2023-12-05T22:23:34.335Z,100.00
2023-12-05T22:26:03.351Z,100.00
2023-12-05T22:28:32.723Z,100.00
2023-12-05T22:31:00.432Z,100.00
2023-12-05T22:33:27.848Z,100.00
2023-12-05T22:35:54.944Z,100.00
2023-12-05T22:38:21.973Z,100.00
2023-12-05T22:40:48.988Z,100.00
2023-12-05T22:43:16.280Z,100.00
2023-12-05T22:45:43.547Z,100.00
2023-12-05T22:48:10.723Z,100.00
2023-12-05T22:50:37.894Z,100.00
2023-12-05T22:53:05.126Z,100.00
2023-12-05T22:55:38.292Z,100.00
2023-12-05T22:58:06.068Z,100.00
2023-12-05T23:00:33.294Z,100.00
2023-12-05T23:03:00.481Z,100.00
2023-12-05T23:05:29.756Z,100.00
2023-12-05T23:07:57.989Z,100.00
2023-12-05T23:10:26.235Z,100.00
2023-12-05T23:12:53.431Z,100.00
2023-12-05T23:15:21.016Z,100.00
2023-12-05T23:17:48.387Z,100.00
2023-12-05T23:20:15.678Z,100.00
2023-12-05T23:22:42.903Z,100.00
2023-12-05T23:25:11.599Z,100.00
2023-12-05T23:27:39.229Z,100.00
2023-12-05T23:30:11.015Z,100.00
2023-12-05T23:32:38.287Z,100.00
2023-12-05T23:35:06.294Z,100.00
2023-12-05T23:37:33.509Z,100.00
2023-12-05T23:40:01.503Z,100.00
2023-12-05T23:42:28.588Z,100.00
2023-12-05T23:44:55.694Z,100.00
2023-12-05T23:47:24.878Z,100.00
2023-12-05T23:49:52.658Z,100.00
2023-12-05T23:52:19.787Z,100.00
2023-12-05T23:54:46.943Z,100.00
2023-12-05T23:57:14.482Z,100.00
2023-12-05T23:59:41.756Z,100.00
